createdAt,value
2019-04-16T00:00:37.310Z,57.70
2019-04-16T00:03:05.903Z,57.60
2019-04-16T00:05:46.111Z,57.60
2019-04-16T00:08:31.448Z,57.60
2019-04-16T00:11:07.315Z,57.60
2019-04-16T00:13:40.458Z,57.70
2019-04-16T00:16:12.694Z,57.70
2019-04-16T00:18:39.160Z,57.80
2019-04-16T00:21:12.360Z,57.70
2019-04-16T00:24:00.984Z,57.80
2019-04-16T00:26:29.532Z,57.70
2019-04-16T00:29:01.611Z,57.70
2019-04-16T00:31:29.731Z,57.80
2019-04-16T00:33:58.179Z,57.80
2019-04-16T00:36:28.700Z,57.90
2019-04-16T00:38:58.699Z,57.90
2019-04-16T00:41:27.138Z,57.90
2019-04-16T00:43:55.660Z,57.80
2019-04-16T00:46:24.161Z,57.90
2019-04-16T00:48:52.601Z,57.90
2019-04-16T00:51:21.043Z,58.00
2019-04-16T00:53:49.502Z,57.90
2019-04-16T00:56:18.042Z,57.90
2019-04-16T00:58:46.570Z,58.00
2019-04-16T01:01:15.103Z,57.90
2019-04-16T01:03:44.958Z,58.10
2019-04-16T01:06:13.449Z,58.00
2019-04-16T01:08:53.860Z,58.10
2019-04-16T01:11:12.048Z,58.10
2019-04-16T01:13:40.582Z,58.10
2019-04-16T01:16:10.738Z,58.10
2019-04-16T01:18:40.767Z,58.10
2019-04-16T01:21:13.743Z,58.10
2019-04-16T01:23:39.473Z,58.10
2019-04-16T01:26:07.916Z,58.10
2019-04-16T01:28:40.572Z,58.20
2019-04-16T01:31:16.632Z,58.20
2019-04-16T01:33:50.374Z,58.30
2019-04-16T01:36:26.405Z,58.30
2019-04-16T01:39:10.913Z,58.30
2019-04-16T01:41:26.672Z,58.30
2019-04-16T01:43:57.138Z,58.30
2019-04-16T01:46:25.382Z,58.30
2019-04-16T01:48:53.849Z,58.20
2019-04-16T01:51:22.271Z,58.30
2019-04-16T01:53:52.347Z,58.30
2019-04-16T01:56:21.515Z,58.30
2019-04-16T01:58:49.989Z,58.30
2019-04-16T02:01:18.472Z,58.30
2019-04-16T02:03:48.958Z,58.40
2019-04-16T02:06:18.617Z,58.40
2019-04-16T02:08:47.104Z,58.40
2019-04-16T02:11:15.631Z,58.40
2019-04-16T02:13:46.134Z,58.40
2019-04-16T02:16:14.388Z,58.50
2019-04-16T02:18:42.923Z,58.50
2019-04-16T02:21:12.594Z,58.40
2019-04-16T02:23:41.090Z,58.40
2019-04-16T02:26:09.592Z,58.50
2019-04-16T02:28:38.051Z,58.50
2019-04-16T02:31:13.266Z,58.50
2019-04-16T02:33:36.722Z,58.50
2019-04-16T02:36:05.276Z,58.50
2019-04-16T02:38:33.831Z,58.50
2019-04-16T02:41:02.401Z,58.60
2019-04-16T02:43:30.875Z,58.50
2019-04-16T02:45:59.345Z,58.50
2019-04-16T02:48:29.448Z,58.60
2019-04-16T02:51:05.424Z,58.50
2019-04-16T02:53:37.368Z,58.60
2019-04-16T02:56:22.872Z,58.60
2019-04-16T02:58:58.924Z,58.60
2019-04-16T03:01:29.204Z,58.70
2019-04-16T03:04:03.616Z,58.80
2019-04-16T03:06:32.584Z,58.70
2019-04-16T03:09:05.274Z,58.70
2019-04-16T03:11:32.835Z,58.80
2019-04-16T03:14:02.808Z,58.70
2019-04-16T03:16:48.892Z,58.80
2019-04-16T03:19:20.350Z,58.80
2019-04-16T03:21:48.940Z,58.80
2019-04-16T03:24:17.408Z,58.80
2019-04-16T03:26:47.664Z,58.80
2019-04-16T03:29:16.159Z,58.80
2019-04-16T03:31:44.596Z,58.80
2019-04-16T03:34:13.066Z,58.90
2019-04-16T03:36:41.493Z,58.80
2019-04-16T03:39:13.183Z,58.90
2019-04-16T03:42:15.185Z,58.90
2019-04-16T03:44:43.641Z,58.90
2019-04-16T03:47:12.258Z,58.90
2019-04-16T03:49:40.797Z,58.90
2019-04-16T03:52:09.840Z,58.90
2019-04-16T03:54:38.392Z,59.00
2019-04-16T03:57:06.881Z,59.00
2019-04-16T03:59:35.313Z,59.00
2019-04-16T04:02:03.832Z,59.00
2019-04-16T04:04:33.008Z,58.90
2019-04-16T04:07:01.563Z,59.00
2019-04-16T04:09:30.832Z,59.00
2019-04-16T04:11:59.296Z,59.00
2019-04-16T04:14:27.732Z,59.00
2019-04-16T04:16:57.457Z,59.00
2019-04-16T04:19:25.940Z,59.00
2019-04-16T04:21:54.522Z,59.00
2019-04-16T04:24:23.031Z,59.00
2019-04-16T04:26:53.065Z,59.00
2019-04-16T04:29:24.757Z,59.00
2019-04-16T04:31:51.724Z,59.00
2019-04-16T04:34:20.213Z,59.00
2019-04-16T04:36:48.724Z,59.10
2019-04-16T04:39:17.384Z,59.10
2019-04-16T04:41:45.816Z,59.00
2019-04-16T04:44:14.282Z,59.00
2019-04-16T04:46:43.183Z,59.10
2019-04-16T04:49:12.906Z,59.10
2019-04-16T04:51:43.522Z,59.10
2019-04-16T04:54:11.528Z,59.00
2019-04-16T04:56:51.890Z,59.10
2019-04-16T04:59:20.427Z,59.10
2019-04-16T05:01:48.892Z,59.00
2019-04-16T05:04:27.460Z,59.00
2019-04-16T05:07:00.600Z,59.10
2019-04-16T05:09:29.447Z,59.00
2019-04-16T05:11:59.377Z,59.10
2019-04-16T05:14:28.753Z,59.00
2019-04-16T05:16:57.219Z,59.00
2019-04-16T05:19:25.743Z,59.00
2019-04-16T05:21:54.269Z,59.00
2019-04-16T05:24:22.765Z,59.00
2019-04-16T05:26:51.216Z,59.10
2019-04-16T05:29:19.698Z,59.00
2019-04-16T05:31:48.330Z,58.90
2019-04-16T05:34:18.142Z,59.00
2019-04-16T05:36:48.042Z,58.90
2019-04-16T05:39:16.850Z,59.00
2019-04-16T05:41:45.305Z,59.00
2019-04-16T05:44:13.785Z,59.00
2019-04-16T05:46:46.297Z,59.00
2019-04-16T05:49:12.493Z,59.00
2019-04-16T05:51:40.971Z,59.00
2019-04-16T05:54:12.165Z,58.90
2019-04-16T05:56:45.836Z,58.90
2019-04-16T05:59:14.269Z,59.00
2019-04-16T06:01:45.428Z,59.00
2019-04-16T06:04:14.887Z,59.00
2019-04-16T06:06:43.427Z,59.00
2019-04-16T06:09:12.911Z,58.80
2019-04-16T06:11:41.715Z,58.90
2019-04-16T06:14:16.917Z,58.90
2019-04-16T06:17:00.438Z,58.80
2019-04-16T06:19:35.083Z,58.80
2019-04-16T06:22:14.364Z,58.80
2019-04-16T06:24:47.207Z,58.70
2019-04-16T06:27:30.252Z,58.80
2019-04-16T06:30:03.221Z,58.90
2019-04-16T06:32:36.228Z,59.00
2019-04-16T06:35:21.623Z,58.80
2019-04-16T06:37:51.818Z,58.90
2019-04-16T06:40:40.011Z,59.10
2019-04-16T06:43:25.175Z,58.80
2019-04-16T06:46:09.502Z,58.80
2019-04-16T06:48:45.967Z,58.90
2019-04-16T06:51:31.795Z,58.80
2019-04-16T06:54:18.499Z,58.70
2019-04-16T06:57:04.792Z,58.50
2019-04-16T06:59:34.900Z,58.30
2019-04-16T07:02:07.629Z,58.30
2019-04-16T07:04:43.803Z,58.50
2019-04-16T07:07:12.811Z,58.00
2019-04-16T07:09:46.008Z,58.20
2019-04-16T07:12:16.226Z,58.00
2019-04-16T07:14:45.539Z,58.00
2019-04-16T07:17:17.836Z,58.00
2019-04-16T07:19:45.689Z,57.90
2019-04-16T07:22:21.234Z,57.80
2019-04-16T07:24:49.812Z,57.70
2019-04-16T07:27:20.253Z,57.80
2019-04-16T07:29:51.683Z,58.00
2019-04-16T07:32:24.523Z,57.90
2019-04-16T07:35:13.500Z,57.90
2019-04-16T07:37:46.653Z,58.00
2019-04-16T07:40:32.987Z,58.10
2019-04-16T07:43:06.002Z,58.10
2019-04-16T07:45:39.253Z,58.00
2019-04-16T07:48:11.788Z,57.50
2019-04-16T07:50:58.062Z,58.30
2019-04-16T07:53:47.402Z,57.90
2019-04-16T07:56:22.736Z,59.70
2019-04-16T07:58:51.281Z,60.70
2019-04-16T08:01:19.745Z,61.20
2019-04-16T08:03:48.253Z,59.90
2019-04-16T08:06:16.704Z,59.70
2019-04-16T08:09:05.539Z,59.60
2019-04-16T08:11:34.054Z,59.10
2019-04-16T08:14:02.537Z,58.90
2019-04-16T08:16:31.246Z,58.80
2019-04-16T08:18:59.669Z,58.40
2019-04-16T08:21:28.140Z,58.30
2019-04-16T08:24:04.257Z,58.40
2019-04-16T08:26:32.737Z,57.90
2019-04-16T08:29:01.190Z,58.00
2019-04-16T08:31:33.389Z,57.60
2019-04-16T08:34:02.068Z,57.40
2019-04-16T08:36:30.582Z,57.20
2019-04-16T08:38:59.040Z,57.00
2019-04-16T08:41:27.646Z,57.00
2019-04-16T08:43:56.151Z,57.00
2019-04-16T08:46:27.979Z,58.40
2019-04-16T08:49:00.485Z,57.10
2019-04-16T08:51:31.281Z,56.70
2019-04-16T08:54:02.982Z,56.60
2019-04-16T08:56:33.129Z,56.60
2019-04-16T08:59:01.773Z,56.40
2019-04-16T09:01:31.855Z,56.40
2019-04-16T09:04:02.723Z,56.20
2019-04-16T09:06:30.577Z,56.20
2019-04-16T09:09:11.867Z,56.10
2019-04-16T09:11:35.336Z,56.10
2019-04-16T09:14:03.631Z,56.00
2019-04-16T09:16:39.386Z,56.00
2019-04-16T09:19:09.555Z,55.90
2019-04-16T09:21:43.306Z,56.00
2019-04-16T09:24:21.807Z,55.70
2019-04-16T09:27:08.701Z,55.60
2019-04-16T09:29:54.758Z,55.60
2019-04-16T09:32:28.531Z,55.40
2019-04-16T09:35:09.693Z,55.30
2019-04-16T09:40:49.449Z,56.10
2019-04-16T09:43:31.547Z,55.40
2019-04-16T09:46:10.054Z,55.20
2019-04-16T09:48:34.275Z,55.20
2019-04-16T09:51:00.452Z,55.10
2019-04-16T09:53:34.030Z,55.00
2019-04-16T09:56:00.723Z,55.00
2019-04-16T09:58:29.193Z,55.10
2019-04-16T10:01:05.352Z,55.00
2019-04-16T10:03:35.482Z,55.00
2019-04-16T10:06:05.646Z,55.00
2019-04-16T10:08:34.401Z,54.90
2019-04-16T10:11:06.078Z,54.40
2019-04-16T10:13:36.010Z,54.50
2019-04-16T10:16:03.517Z,54.10
2019-04-16T10:18:35.085Z,54.60
2019-04-16T10:21:02.239Z,54.10
2019-04-16T10:23:32.401Z,54.30
2019-04-16T10:26:02.265Z,54.40
2019-04-16T10:28:33.998Z,53.70
2019-04-16T10:31:02.613Z,54.30
2019-04-16T10:33:31.199Z,54.00
2019-04-16T10:36:01.026Z,54.10
2019-04-16T10:38:39.307Z,54.40
2019-04-16T10:41:18.779Z,53.80
2019-04-16T10:44:06.824Z,54.30
2019-04-16T10:46:37.014Z,53.90
2019-04-16T10:49:07.115Z,53.50
2019-04-16T10:51:55.398Z,54.00
2019-04-16T10:54:40.569Z,54.00
2019-04-16T10:57:25.673Z,53.50
2019-04-16T11:00:12.049Z,54.00
2019-04-16T11:02:49.588Z,53.40
2019-04-16T11:05:20.236Z,53.70
2019-04-16T11:07:50.639Z,53.30
2019-04-16T11:10:19.218Z,52.20
2019-04-16T11:12:47.752Z,52.50
2019-04-16T11:15:18.020Z,52.90
2019-04-16T11:17:46.653Z,53.20
2019-04-16T11:20:15.441Z,53.30
2019-04-16T11:22:44.096Z,52.80
2019-04-16T11:25:12.710Z,52.10
2019-04-16T11:27:41.363Z,53.30
2019-04-16T11:30:15.378Z,53.00
2019-04-16T11:32:43.886Z,53.10
2019-04-16T11:35:12.963Z,53.50
2019-04-16T11:37:44.508Z,52.90
2019-04-16T11:40:13.018Z,51.40
2019-04-16T11:42:41.448Z,52.90
2019-04-16T11:45:13.313Z,53.30
2019-04-16T11:47:41.805Z,51.90
2019-04-16T11:50:10.640Z,51.90
2019-04-16T11:52:39.999Z,51.50
2019-04-16T11:55:10.768Z,51.40
2019-04-16T11:57:41.673Z,51.50
2019-04-16T12:00:13.342Z,51.70
2019-04-16T12:02:49.291Z,51.30
2019-04-16T12:05:19.483Z,53.10
2019-04-16T12:07:49.609Z,53.30
2019-04-16T12:10:22.297Z,52.10
2019-04-16T12:13:03.152Z,51.10
2019-04-16T12:15:34.403Z,52.70
2019-04-16T12:18:10.481Z,52.50
2019-04-16T12:20:46.560Z,53.10
2019-04-16T12:23:32.700Z,53.50
2019-04-16T12:26:02.847Z,54.70
2019-04-16T12:28:42.366Z,55.40
2019-04-16T12:31:16.271Z,56.00
2019-04-16T12:33:45.131Z,55.50
2019-04-16T12:36:31.948Z,55.20
2019-04-16T12:39:19.686Z,56.40
2019-04-16T12:42:00.220Z,56.60
2019-04-16T12:44:44.721Z,57.40
2019-04-16T12:47:04.842Z,57.10
2019-04-16T12:49:50.925Z,56.60
2019-04-16T12:52:37.059Z,57.30
2019-04-16T12:55:23.620Z,56.70
2019-04-16T12:58:02.050Z,56.10
2019-04-16T13:00:44.291Z,57.00
2019-04-16T13:03:18.241Z,56.30
2019-04-16T13:08:26.484Z,56.00
2019-04-16T13:10:56.567Z,56.50
2019-04-16T13:13:43.061Z,56.20
2019-04-16T13:16:13.146Z,55.80
2019-04-16T13:18:43.249Z,55.20
2019-04-16T13:21:14.370Z,55.10
2019-04-16T13:23:44.546Z,54.80
2019-04-16T13:26:29.692Z,54.60
2019-04-16T13:29:00.089Z,54.20
2019-04-16T13:31:28.946Z,53.50
2019-04-16T13:33:57.381Z,53.70
2019-04-16T13:36:27.796Z,52.70
2019-04-16T13:38:57.685Z,53.60
2019-04-16T13:41:27.085Z,53.20
2019-04-16T13:44:08.199Z,52.90
2019-04-16T13:46:34.796Z,53.60
2019-04-16T13:49:08.014Z,52.70
2019-04-16T13:51:36.768Z,53.40
2019-04-16T13:54:06.832Z,53.80
2019-04-16T13:56:39.707Z,53.50
2019-04-16T13:59:18.815Z,53.10
2019-04-16T14:01:54.901Z,53.30
2019-04-16T14:04:23.570Z,52.60
2019-04-16T14:06:52.127Z,53.40
2019-04-16T14:09:20.639Z,52.00
2019-04-16T14:11:51.311Z,53.40
2019-04-16T14:14:22.479Z,53.10
2019-04-16T14:16:49.677Z,52.70
2019-04-16T14:19:18.151Z,52.50
2019-04-16T14:21:46.671Z,52.00
2019-04-16T14:24:15.222Z,53.20
2019-04-16T14:26:43.667Z,51.10
2019-04-16T14:29:12.129Z,51.80
2019-04-16T14:31:40.647Z,52.60
2019-04-16T14:34:10.746Z,51.80
2019-04-16T14:36:39.554Z,52.00
2019-04-16T14:39:16.577Z,51.00
2019-04-16T14:41:48.719Z,52.50
2019-04-16T14:44:20.179Z,53.10
2019-04-16T14:46:48.768Z,53.40
2019-04-16T14:49:18.431Z,52.20
2019-04-16T14:51:47.524Z,52.20
2019-04-16T14:54:29.790Z,53.00
2019-04-16T14:57:02.043Z,51.00
2019-04-16T14:59:41.243Z,52.70
2019-04-16T15:02:17.447Z,51.60
2019-04-16T15:05:02.575Z,51.90
2019-04-16T15:07:47.780Z,52.80
2019-04-16T15:10:20.716Z,53.00
2019-04-16T15:12:53.236Z,52.00
2019-04-16T15:15:25.756Z,51.50
2019-04-16T15:17:55.867Z,52.10
2019-04-16T15:20:25.997Z,53.60
2019-04-16T15:23:12.652Z,53.80
2019-04-16T15:25:48.939Z,52.70
2019-04-16T15:28:25.154Z,53.10
2019-04-16T15:31:00.859Z,53.40
2019-04-16T15:33:35.687Z,53.80
2019-04-16T15:36:04.864Z,54.10
2019-04-16T15:38:53.292Z,54.30
2019-04-16T15:41:24.668Z,54.50
2019-04-16T15:44:11.366Z,55.00
2019-04-16T15:47:02.673Z,55.40
2019-04-16T15:49:38.296Z,56.20
2019-04-16T15:52:10.496Z,56.20
2019-04-16T15:54:50.299Z,56.10
2019-04-16T15:57:30.088Z,56.90
2019-04-16T16:00:03.285Z,56.80
2019-04-16T16:02:45.455Z,57.70
2019-04-16T16:05:18.704Z,57.20
2019-04-16T16:07:56.054Z,56.80
2019-04-16T16:10:23.394Z,56.80
2019-04-16T16:12:53.626Z,56.90
2019-04-16T16:15:22.315Z,57.30
2019-04-16T16:17:50.806Z,57.50
2019-04-16T16:20:19.631Z,57.40
2019-04-16T16:22:48.109Z,57.60
2019-04-16T16:25:16.671Z,57.40
2019-04-16T16:27:47.141Z,57.30
2019-04-16T16:30:15.748Z,57.20
2019-04-16T16:32:44.366Z,57.20
2019-04-16T16:35:17.013Z,57.30
2019-04-16T16:37:43.307Z,57.30
2019-04-16T16:40:14.777Z,57.40
2019-04-16T16:42:42.292Z,58.40
2019-04-16T16:45:10.881Z,58.10
2019-04-16T16:47:40.177Z,57.70
2019-04-16T16:50:12.951Z,57.90
2019-04-16T16:52:43.257Z,58.20
2019-04-16T16:55:16.462Z,61.90
2019-04-16T16:57:49.708Z,61.30
2019-04-16T17:00:59.837Z,61.00
2019-04-16T17:03:31.039Z,61.10
2019-04-16T17:06:00.177Z,61.20
2019-04-16T17:08:30.284Z,60.80
2019-04-16T17:11:14.074Z,60.70
2019-04-16T17:13:29.450Z,60.60
2019-04-16T17:15:57.994Z,60.50
2019-04-16T17:18:26.502Z,60.70
2019-04-16T17:20:54.970Z,61.80
2019-04-16T17:23:25.600Z,61.00
2019-04-16T17:25:57.236Z,61.90
2019-04-16T17:28:23.973Z,60.50
2019-04-16T17:30:52.785Z,60.40
2019-04-16T17:33:21.330Z,60.20
2019-04-16T17:35:49.771Z,60.10
2019-04-16T17:38:18.283Z,60.40
2019-04-16T17:40:57.422Z,60.10
2019-04-16T17:43:28.941Z,60.60
2019-04-16T17:46:04.612Z,61.10
2019-04-16T17:48:50.891Z,60.70
2019-04-16T17:51:20.963Z,60.40
2019-04-16T17:53:56.757Z,61.00
2019-04-16T17:56:43.469Z,61.00
2019-04-16T17:59:16.301Z,61.20
2019-04-16T18:01:52.306Z,61.10
2019-04-16T18:04:30.894Z,60.90
2019-04-16T18:07:01.083Z,61.00
2019-04-16T18:09:34.044Z,61.30
2019-04-16T18:12:13.049Z,60.90
2019-04-16T18:14:59.881Z,60.70
2019-04-16T18:17:46.097Z,60.80
2019-04-16T18:20:14.231Z,60.10
2019-04-16T18:22:44.962Z,60.30
2019-04-16T18:25:21.176Z,60.30
2019-04-16T18:27:50.542Z,60.40
2019-04-16T18:30:40.361Z,60.70
2019-04-16T18:33:28.129Z,60.40
2019-04-16T18:36:17.039Z,60.70
2019-04-16T18:39:05.897Z,60.50
2019-04-16T18:41:38.760Z,60.50
2019-04-16T18:44:09.056Z,60.70
2019-04-16T18:46:41.956Z,61.50
2019-04-16T18:49:14.296Z,61.10
2019-04-16T18:51:43.398Z,60.80
2019-04-16T18:54:15.017Z,61.20
2019-04-16T18:56:45.646Z,61.90
2019-04-16T18:59:14.195Z,61.50
2019-04-16T19:01:44.408Z,61.80
2019-04-16T19:04:13.184Z,61.30
2019-04-16T19:06:41.771Z,62.20
2019-04-16T19:09:10.250Z,61.50
2019-04-16T19:11:38.934Z,61.70
2019-04-16T19:14:10.227Z,62.70
2019-04-16T19:16:37.611Z,62.40
2019-04-16T19:19:06.071Z,61.80
2019-04-16T19:21:34.666Z,63.60
2019-04-16T19:24:11.296Z,63.10
2019-04-16T19:26:39.953Z,62.70
2019-04-16T19:29:13.034Z,62.50
2019-04-16T19:31:38.733Z,62.00
2019-04-16T19:34:10.202Z,61.60
2019-04-16T19:36:37.461Z,61.60
2019-04-16T19:39:13.716Z,62.50
2019-04-16T19:41:41.162Z,63.50
2019-04-16T19:44:08.356Z,63.00
2019-04-16T19:46:36.932Z,64.30
2019-04-16T19:49:05.953Z,64.70
2019-04-16T19:51:34.741Z,63.00
2019-04-16T19:54:04.393Z,62.90
2019-04-16T19:56:33.569Z,63.50
2019-04-16T19:59:02.757Z,64.10
2019-04-16T20:01:31.202Z,64.90
2019-04-16T20:03:59.700Z,63.20
2019-04-16T20:06:28.306Z,62.90
2019-04-16T20:08:56.999Z,62.50
2019-04-16T20:11:25.453Z,62.90
2019-04-16T20:13:54.189Z,62.20
2019-04-16T20:16:22.687Z,63.00
2019-04-16T20:18:51.673Z,62.10
2019-04-16T20:21:20.273Z,62.30
2019-04-16T20:23:48.744Z,61.90
2019-04-16T20:26:17.277Z,61.90
2019-04-16T20:28:48.420Z,62.30
2019-04-16T20:31:16.563Z,61.90
2019-04-16T20:33:45.132Z,62.20
2019-04-16T20:36:13.675Z,62.20
2019-04-16T20:38:42.232Z,62.10
2019-04-16T20:41:10.672Z,63.20
2019-04-16T20:43:39.147Z,62.20
2019-04-16T20:46:07.672Z,61.90
2019-04-16T20:48:36.146Z,61.90
2019-04-16T20:51:04.739Z,61.80
2019-04-16T20:53:33.203Z,61.60
2019-04-16T20:56:01.900Z,61.60
2019-04-16T20:58:31.423Z,61.70
2019-04-16T21:01:01.828Z,61.70
2019-04-16T21:03:31.278Z,61.70
2019-04-16T21:06:00.232Z,61.60
2019-04-16T21:08:28.882Z,64.10
2019-04-16T21:10:59.490Z,62.60
2019-04-16T21:13:27.504Z,62.10
2019-04-16T21:15:57.307Z,61.90
2019-04-16T21:18:26.200Z,61.70
2019-04-16T21:20:54.655Z,62.70
2019-04-16T21:23:23.114Z,62.00
2019-04-16T21:25:51.588Z,61.80
2019-04-16T21:28:24.336Z,61.60
2019-04-16T21:30:54.504Z,61.60
2019-04-16T21:33:33.654Z,61.80
2019-04-16T21:36:05.203Z,61.90
2019-04-16T21:39:09.862Z,61.60
2019-04-16T21:41:38.312Z,61.80
2019-04-16T21:44:11.497Z,61.90
2019-04-16T21:46:37.025Z,61.80
2019-04-16T21:49:07.839Z,61.70
2019-04-16T21:51:37.293Z,61.90
2019-04-16T21:54:05.731Z,61.70
2019-04-16T21:56:36.917Z,61.80
2019-04-16T21:59:05.806Z,62.20
2019-04-16T22:01:36.767Z,62.60
2019-04-16T22:04:13.243Z,61.80
2019-04-16T22:06:40.299Z,61.70
2019-04-16T22:09:08.793Z,61.80
2019-04-16T22:11:37.243Z,61.70
2019-04-16T22:14:06.014Z,61.80
2019-04-16T22:16:34.583Z,61.80
2019-04-16T22:19:03.122Z,61.90
2019-04-16T22:21:31.579Z,61.90
2019-04-16T22:24:00.046Z,61.90
2019-04-16T22:26:28.484Z,61.80
2019-04-16T22:28:57.264Z,62.00
2019-04-16T22:31:25.751Z,61.90
2019-04-16T22:33:54.249Z,61.80
2019-04-16T22:36:22.752Z,62.20
2019-04-16T22:38:52.860Z,62.30
2019-04-16T22:41:28.951Z,62.10
2019-04-16T22:44:04.857Z,62.00
2019-04-16T22:46:41.296Z,62.20
2019-04-16T22:49:09.806Z,62.30
2019-04-16T22:51:44.178Z,61.90
2019-04-16T22:54:12.614Z,62.00
2019-04-16T22:56:45.500Z,62.20
2019-04-16T22:59:14.038Z,62.20
2019-04-16T23:01:44.862Z,62.10
2019-04-16T23:04:14.207Z,62.00
2019-04-16T23:06:42.630Z,62.10
2019-04-16T23:09:16.707Z,62.00
2019-04-16T23:11:41.581Z,62.10
2019-04-16T23:14:10.038Z,62.10
2019-04-16T23:16:41.879Z,62.00
2019-04-16T23:19:08.673Z,62.10
2019-04-16T23:21:42.347Z,62.10
2019-04-16T23:24:07.544Z,62.30
2019-04-16T23:26:36.111Z,62.30
2019-04-16T23:29:04.617Z,62.00
2019-04-16T23:31:33.083Z,62.20
2019-04-16T23:34:04.579Z,62.10
2019-04-16T23:36:31.812Z,62.20
2019-04-16T23:39:03.266Z,62.20
2019-04-16T23:41:30.543Z,62.30
2019-04-16T23:44:16.909Z,62.30
2019-04-16T23:46:49.972Z,62.30
2019-04-16T23:49:35.381Z,61.90
2019-04-16T23:52:05.631Z,62.20
2019-04-16T23:54:40.683Z,62.20
2019-04-16T23:57:10.880Z,62.30
2019-04-16T23:59:58.886Z,62.30
